Terminal Aerodrome Forecast
Issued by NWS St Louis, MO

Home | Current Version | Previous Version | Text Only | Print | Product List | Glossary On
Versions: 1 2 3 4 5 6 7 8 9 10 11 12 13 14 15 16 17 18 19 20 21 22 23 24 25 26 27 28 29 30 31 32 33 34 35
000
FTUS43 KLSX 272054 AAA
TAFSTL
TAF AMD
KSTL 272054Z 2721/2824 34008KT P6SM VCSH OVC008
     FM272200 35007KT P6SM VCSH SCT008 OVC020
     FM280100 35007KT P6SM OVC040
     FM280600 33005KT P6SM OVC015
     FM280900 36005KT P6SM BKN008
     FM281700 03005KT P6SM BKN015
     FM282100 03006KT P6SM BKN040=

USA.gov is the U.S. government's official web portal to all federal, state and local government web resources and services.